TAF MGSJ
METAR MGSJ
MGSJ 280000Z 00000KT 8000 FEW200 28/22 Q1012 A2988 FU =
MGSJ 272300Z 24006KT 8000 FEW026TCU BKN200 29/22 Q1011 A2985 FU TCU NNW=
MGSJ 272100Z 23010KT 8000 SCT200 32/22 Q1010 A2983 FU=
MGSJ 272000Z 20010KT 8000 FEW026TCU SCT200 32/20 Q1011 A2985 FU TCU NW=
MGSJ 271900Z 18010KT 8000 SCT200 31/21 Q1012 A2988 FU=
WC MGSJ
WS MGSJ
WV MGSJ